Hauptseite
METAR-TAF:

METAR-TAF

Flughäfen :

Jendouba, Tunesien

Breite: 36-29N, Länge: 008-48E, Höhe: 143 m

Beobachtung

Neuester Wetterbericht von vor 37 Minuten, um 09:00 UTC
Windstille
Temperatur 10°C
Luftfeuchtigkeit 82%
Luftdruck 1023 hPa
Sichtweite 10 km oder mehr
Leicht bewölkt in der Höhe von 2000 ft

METAR: DTTN 240900Z 00000KT 9999 FEW020 10/07 Q1023

Zeit: 10:37 (09:37 UTC)


TAF: fehlend

Wetterbeobachtungen und Prognosen von mehr als 4000 Flughäfen (METAR und TAF Bericht).

Die verfügbaren Stationen werden durch gelbe und rote Markierungen auf der Karte dargestellt.

Führen Sie die Maus auf sie, um den Namen der Station zu sehen.

Darauf klicken, um die Beobachtung von Wetterbeobachtungen und Prognosen zu sehen.

Um die Karte zu ändern : klicken Sie auf den grünen Tasten mit einem schwarzen Kreuz Zum Vergrößern, auf den grünen Button mit einem Gedankenstrich zu verkleinern, oder auf die grünen Pfeile für benachbarte Karten.


METAR-TAF: